createdAt,value
2023-02-03T00:00:17.783Z,-2.05
2023-02-03T00:05:40.434Z,-2.09
2023-02-03T00:11:02.572Z,-2.16
2023-02-03T00:16:25.007Z,-2.13
2023-02-03T00:21:47.037Z,-2.28
2023-02-03T00:27:09.103Z,-2.11
2023-02-03T00:32:31.513Z,-2.14
2023-02-03T00:37:55.371Z,-2.11
2023-02-03T00:43:17.474Z,-2.21
2023-02-03T00:48:39.317Z,-2.37
2023-02-03T00:54:01.664Z,-2.14
2023-02-03T00:59:24.508Z,-2.19
2023-02-03T01:04:46.088Z,-2.34
2023-02-03T01:10:08.896Z,-2.24
2023-02-03T01:15:30.690Z,-2.33
2023-02-03T01:20:52.973Z,-2.30
2023-02-03T01:26:17.476Z,-2.32
2023-02-03T01:31:41.870Z,-2.36
2023-02-03T01:37:03.966Z,-2.39
2023-02-03T01:42:25.974Z,-2.45
2023-02-03T01:47:53.105Z,-2.41
2023-02-03T01:53:15.945Z,-2.51
2023-02-03T01:58:41.873Z,-2.50
2023-02-03T02:04:08.685Z,-2.48
2023-02-03T02:09:31.121Z,-2.54
2023-02-03T02:14:53.540Z,-2.47
2023-02-03T02:21:03.967Z,-2.39
2023-02-03T02:26:39.906Z,-2.41
2023-02-03T02:32:26.183Z,-2.78
2023-02-03T02:38:00.424Z,-2.43
2023-02-03T02:43:31.633Z,-2.45
2023-02-03T02:49:12.745Z,-2.48
2023-02-03T02:54:38.396Z,-2.57
2023-02-03T03:00:02.260Z,-2.64
2023-02-03T03:05:30.354Z,-2.72
2023-02-03T03:10:57.097Z,-2.65
2023-02-03T03:16:26.788Z,-2.61
2023-02-03T03:22:00.204Z,-2.62
2023-02-03T03:27:31.104Z,-2.60
2023-02-03T03:32:53.485Z,-2.73
2023-02-03T03:38:25.933Z,-2.70
2023-02-03T03:43:50.251Z,-2.79
2023-02-03T03:49:14.175Z,-2.63
2023-02-03T03:54:39.534Z,-2.67
2023-02-03T04:00:03.196Z,-2.78
2023-02-03T04:05:35.202Z,-2.64
2023-02-03T04:10:56.893Z,-2.62
2023-02-03T04:16:19.082Z,-2.62
2023-02-03T04:21:40.889Z,-2.66
2023-02-03T04:27:05.575Z,-2.71
2023-02-03T04:32:28.190Z,-2.69
2023-02-03T04:37:50.027Z,-2.73
2023-02-03T04:43:13.045Z,-2.70
2023-02-03T04:48:34.932Z,-2.65
2023-02-03T04:53:57.092Z,-2.67
2023-02-03T04:59:19.575Z,-2.65
2023-02-03T05:04:41.273Z,-2.68
2023-02-03T05:10:03.245Z,-2.76
2023-02-03T05:15:25.296Z,-2.80
2023-02-03T05:20:47.236Z,-2.77
2023-02-03T05:26:09.555Z,-2.81
2023-02-03T05:31:31.808Z,-2.86
2023-02-03T05:36:53.478Z,-2.74
2023-02-03T05:42:15.494Z,-2.68
2023-02-03T05:47:37.056Z,-2.65
2023-02-03T05:52:59.371Z,-2.72
2023-02-03T05:58:21.604Z,-2.62
2023-02-03T06:03:46.034Z,-2.58
2023-02-03T06:09:09.589Z,-2.59
2023-02-03T06:14:34.006Z,-2.51
2023-02-03T06:19:55.704Z,-2.70
2023-02-03T06:25:17.759Z,-2.41
2023-02-03T06:30:40.526Z,-2.45
2023-02-03T06:36:02.868Z,-2.41
2023-02-03T06:41:29.085Z,-2.37
2023-02-03T06:46:54.256Z,-2.39
2023-02-03T06:52:16.767Z,-2.20
2023-02-03T06:57:47.945Z,-2.29
2023-02-03T07:03:10.112Z,-2.20
2023-02-03T07:08:35.225Z,-2.14
2023-02-03T07:13:58.206Z,-2.23
2023-02-03T07:19:20.296Z,-2.15
2023-02-03T07:24:46.151Z,-2.15
2023-02-03T07:30:11.491Z,-2.12
2023-02-03T07:35:34.453Z,-2.12
2023-02-03T07:40:57.132Z,-2.19
2023-02-03T07:46:19.972Z,-2.10
2023-02-03T07:52:07.145Z,-1.92
2023-02-03T07:57:31.095Z,-2.00
2023-02-03T08:02:53.002Z,-1.78
2023-02-03T08:08:15.075Z,-1.79
2023-02-03T08:13:37.203Z,-1.92
2023-02-03T08:18:59.504Z,-1.82
2023-02-03T08:24:21.592Z,-1.76
2023-02-03T08:29:44.535Z,-1.72
2023-02-03T08:35:07.225Z,-1.66
2023-02-03T08:40:29.652Z,-1.57
2023-02-03T08:45:51.999Z,-1.59
2023-02-03T08:51:17.504Z,-1.59
2023-02-03T08:56:41.733Z,-1.52
2023-02-03T09:02:05.230Z,-1.39
2023-02-03T09:07:27.972Z,-1.39
2023-02-03T09:12:49.851Z,-1.44
2023-02-03T09:18:12.178Z,-1.40
2023-02-03T09:23:34.585Z,-1.31
2023-02-03T09:28:57.056Z,-1.49
2023-02-03T09:34:21.194Z,-1.32
2023-02-03T09:39:43.432Z,-1.29
2023-02-03T09:45:22.023Z,-1.41
2023-02-03T09:50:46.754Z,-1.42
2023-02-03T09:56:21.247Z,-1.50
2023-02-03T10:02:00.330Z,-1.47
2023-02-03T10:07:46.593Z,-1.30
2023-02-03T10:13:38.109Z,-1.19
2023-02-03T10:19:05.432Z,-1.23
2023-02-03T10:25:09.086Z,-1.31
2023-02-03T10:30:46.049Z,-1.31
2023-02-03T10:36:28.582Z,-1.39
2023-02-03T10:41:53.498Z,-1.38
2023-02-03T10:47:35.692Z,-1.29
2023-02-03T10:53:25.525Z,-1.51
2023-02-03T10:58:52.562Z,-1.34
2023-02-03T11:04:28.734Z,-1.30
2023-02-03T11:09:50.612Z,-1.30
2023-02-03T11:15:16.063Z,-1.37
2023-02-03T11:20:41.133Z,-1.37
2023-02-03T11:26:15.903Z,-1.26
2023-02-03T11:31:38.485Z,-1.29
2023-02-03T11:37:31.771Z,-1.26
2023-02-03T11:42:54.323Z,-1.16
2023-02-03T11:48:53.435Z,-1.13
2023-02-03T11:54:36.495Z,-1.10
2023-02-03T12:00:17.180Z,-1.17
2023-02-03T12:06:19.655Z,-1.20
2023-02-03T12:11:51.825Z,-1.24
2023-02-03T12:17:27.818Z,-1.18
2023-02-03T12:23:25.425Z,-1.27
2023-02-03T12:29:02.729Z,-1.28
2023-02-03T12:34:38.780Z,-1.20
2023-02-03T12:40:10.011Z,-1.17
2023-02-03T12:45:37.613Z,-1.10
2023-02-03T12:51:05.808Z,-1.15
2023-02-03T12:56:37.211Z,-1.29
2023-02-03T13:02:04.028Z,-1.33
2023-02-03T13:08:02.470Z,-1.31
2023-02-03T13:13:44.088Z,-1.19
2023-02-03T13:19:17.899Z,-1.34
2023-02-03T13:24:52.951Z,-1.20
2023-02-03T13:30:36.596Z,-1.22
2023-02-03T13:36:06.509Z,-1.27
2023-02-03T13:41:28.988Z,-1.23
2023-02-03T13:46:53.167Z,-1.29
2023-02-03T13:52:33.529Z,-1.36
2023-02-03T13:57:55.705Z,-1.20
2023-02-03T14:03:44.217Z,-1.17
2023-02-03T14:09:23.694Z,-1.16
2023-02-03T14:15:03.741Z,-1.16
2023-02-03T14:20:26.273Z,-1.15
2023-02-03T14:25:53.606Z,-1.14
2023-02-03T14:31:20.203Z,-1.15
2023-02-03T14:36:53.389Z,-1.28
2023-02-03T14:42:23.167Z,-1.16
2023-02-03T14:47:45.529Z,-1.12
2023-02-03T14:53:10.620Z,-1.14
2023-02-03T14:58:39.007Z,-1.11
2023-02-03T15:04:14.409Z,-1.13
2023-02-03T15:09:49.373Z,-1.30
2023-02-03T15:15:28.582Z,-1.13
2023-02-03T15:20:55.595Z,-1.16
2023-02-03T15:26:21.683Z,-1.22
2023-02-03T15:31:49.303Z,-1.21
2023-02-03T15:43:15.691Z,-1.20
2023-02-03T15:48:37.987Z,-1.07
2023-02-03T15:54:13.935Z,-1.25
2023-02-03T15:59:44.442Z,-1.19
2023-02-03T16:05:37.871Z,-1.05
2023-02-03T16:11:20.942Z,-1.21
2023-02-03T16:17:04.741Z,-1.08
2023-02-03T16:22:37.011Z,-1.07
2023-02-03T16:28:37.884Z,-1.15
2023-02-03T16:34:20.892Z,-1.20
2023-02-03T16:40:02.131Z,-1.19
2023-02-03T16:45:44.197Z,-1.11
2023-02-03T16:51:13.699Z,-1.20
2023-02-03T16:56:35.978Z,-1.18
2023-02-03T17:01:58.967Z,-1.21
2023-02-03T17:07:21.322Z,-1.13
2023-02-03T17:12:43.363Z,-1.18
2023-02-03T17:18:06.040Z,-1.18
2023-02-03T17:23:30.203Z,-1.07
2023-02-03T17:28:52.479Z,-1.14
2023-02-03T17:34:14.854Z,-1.06
2023-02-03T17:56:36.199Z,-1.05
2023-02-03T18:02:07.866Z,-0.97
2023-02-03T18:07:36.580Z,-0.89
2023-02-03T18:13:04.808Z,-0.85
2023-02-03T18:18:31.063Z,-1.14
2023-02-03T18:24:00.595Z,-1.14
2023-02-03T18:29:43.544Z,-1.09
2023-02-03T18:35:11.729Z,-1.21
2023-02-03T18:40:35.399Z,-1.11
2023-02-03T18:45:57.425Z,-1.02
2023-02-03T18:51:22.017Z,-1.14
2023-02-03T18:56:44.808Z,-1.00
2023-02-03T19:02:10.405Z,-0.98
2023-02-03T19:07:32.401Z,-1.14
2023-02-03T19:12:54.210Z,-0.95
2023-02-03T19:18:16.656Z,-1.03
2023-02-03T19:23:40.346Z,-0.99
2023-02-03T19:29:02.521Z,-1.10
2023-02-03T19:34:26.952Z,-1.10
2023-02-03T19:39:51.944Z,-1.10
2023-02-03T19:45:14.012Z,-1.05
2023-02-03T19:50:37.402Z,-1.05
2023-02-03T19:56:02.097Z,-1.04
2023-02-03T20:01:26.089Z,-0.98
2023-02-03T20:06:48.451Z,-1.13
2023-02-03T20:12:11.071Z,-1.36
2023-02-03T20:17:33.398Z,-1.30
2023-02-03T20:22:55.683Z,-1.32
2023-02-03T20:28:18.385Z,-1.34
2023-02-03T20:33:40.794Z,-1.37
2023-02-03T20:39:03.445Z,-1.14
2023-02-03T20:44:25.694Z,-1.27
2023-02-03T20:49:50.022Z,-0.97
2023-02-03T20:55:21.466Z,-1.11
2023-02-03T21:00:43.742Z,-1.14
2023-02-03T21:06:20.983Z,-0.95
2023-02-03T21:11:44.031Z,-1.03
2023-02-03T21:17:15.733Z,-1.01
2023-02-03T21:22:38.053Z,-1.06
2023-02-03T21:28:01.869Z,-1.05
2023-02-03T21:33:41.833Z,-0.95
2023-02-03T21:39:39.012Z,-1.02
2023-02-03T21:45:01.191Z,-1.06
2023-02-03T21:50:29.536Z,-1.15
2023-02-03T21:55:52.187Z,-1.00
2023-02-03T22:01:17.957Z,-0.99
2023-02-03T22:06:46.528Z,-1.12
2023-02-03T22:12:11.482Z,-0.99
2023-02-03T22:17:33.521Z,-1.10
2023-02-03T22:22:55.933Z,-1.17
2023-02-03T22:28:18.412Z,-0.97
2023-02-03T22:33:41.591Z,-1.15
2023-02-03T22:39:03.564Z,-1.03
2023-02-03T22:44:26.289Z,-1.03
2023-02-03T22:49:48.570Z,-1.23
2023-02-03T22:55:10.927Z,-1.01
2023-02-03T23:00:33.600Z,-1.03
2023-02-03T23:05:56.966Z,-1.21
2023-02-03T23:11:20.062Z,-1.05
2023-02-03T23:16:41.903Z,-1.19
2023-02-03T23:22:04.231Z,-1.13
2023-02-03T23:27:26.231Z,-1.11
2023-02-03T23:32:48.563Z,-1.03
2023-02-03T23:38:10.709Z,-1.22
2023-02-03T23:43:32.848Z,-1.06
2023-02-03T23:48:55.252Z,-1.18
2023-02-03T23:54:17.717Z,-1.12
